createdAt,value
2018-05-14T00:03:00.746Z,83.25
2018-05-14T00:07:04.506Z,83.63
2018-05-14T00:08:32.512Z,82.92
2018-05-14T00:10:39.086Z,82.15
2018-05-14T00:13:29.711Z,83.49
2018-05-14T00:14:07.068Z,83.78
2018-05-14T00:15:07.164Z,83.68
2018-05-14T00:16:14.217Z,82.53
2018-05-14T00:18:41.463Z,82.82
2018-05-14T00:19:41.469Z,83.49
2018-05-14T00:21:00.471Z,83.68
2018-05-14T00:21:39.089Z,84.74
2018-05-14T00:25:43.074Z,84.06
2018-05-14T00:26:45.083Z,84.45
2018-05-14T00:27:42.557Z,84.26
2018-05-14T00:28:42.657Z,84.55
2018-05-14T00:29:43.582Z,84.55
2018-05-14T00:34:06.659Z,84.06
2018-05-14T00:35:06.747Z,84.55
2018-05-14T00:39:03.448Z,83.78
2018-05-14T00:39:55.460Z,83.59
2018-05-14T00:40:55.389Z,83.59
2018-05-14T00:43:21.176Z,83.59
2018-05-14T00:45:52.681Z,81.48
2018-05-14T00:46:54.693Z,81.48
2018-05-14T00:49:45.331Z,82.01
2018-05-14T00:50:23.693Z,82.59
2018-05-14T00:51:23.799Z,83.54
2018-05-14T00:52:30.839Z,83.45
2018-05-14T00:57:58.679Z,83.64
2018-05-14T01:02:24.315Z,82.30
2018-05-14T01:04:35.871Z,83.16
2018-05-14T01:08:44.784Z,83.93
2018-05-14T01:09:36.281Z,84.02
2018-05-14T01:12:10.550Z,83.45
2018-05-14T01:13:28.880Z,84.36
2018-05-14T01:14:08.556Z,84.36
2018-05-14T01:16:40.185Z,83.12
2018-05-14T01:17:40.192Z,83.60
2018-05-14T01:19:07.193Z,84.27
2018-05-14T01:21:32.249Z,84.75
2018-05-14T01:22:33.401Z,84.94
2018-05-14T01:24:43.537Z,84.75
2018-05-14T01:27:21.029Z,85.32
2018-05-14T01:28:35.488Z,84.65
2018-05-14T01:29:14.613Z,84.27
2018-05-14T01:30:21.537Z,84.27
2018-05-14T01:32:46.194Z,84.36
2018-05-14T01:33:52.919Z,84.27
2018-05-14T01:36:19.050Z,83.69
2018-05-14T01:38:52.552Z,83.98
2018-05-14T01:39:56.558Z,83.98
2018-05-14T01:42:43.187Z,83.31
2018-05-14T01:49:49.010Z,84.08
2018-05-14T01:53:30.250Z,83.08
2018-05-14T01:56:02.512Z,83.75
2018-05-14T02:00:27.371Z,85.57
2018-05-14T02:04:14.450Z,84.13
2018-05-14T02:06:45.953Z,84.13
2018-05-14T02:07:39.953Z,85.09
2018-05-14T02:08:41.951Z,84.99
2018-05-14T02:10:00.530Z,85.47
2018-05-14T02:11:05.883Z,85.47
2018-05-14T02:11:42.446Z,85.47
2018-05-14T02:12:39.956Z,85.57
2018-05-14T02:20:00.517Z,85.38
2018-05-14T02:21:07.528Z,85.28
2018-05-14T02:26:27.984Z,85.47
2018-05-14T02:27:35.051Z,85.42
2018-05-14T02:31:45.151Z,85.52
2018-05-14T02:32:26.161Z,85.90
2018-05-14T02:33:31.097Z,85.33
2018-05-14T02:34:43.621Z,84.70
2018-05-14T02:37:09.989Z,85.24
2018-05-14T02:39:16.443Z,84.66
2018-05-14T02:39:55.548Z,85.14
2018-05-14T02:44:01.235Z,85.14
2018-05-14T02:44:59.174Z,85.05
2018-05-14T02:46:20.244Z,85.33
2018-05-14T02:46:58.746Z,85.42
2018-05-14T02:49:36.998Z,84.66
2018-05-14T02:50:31.005Z,84.85
2018-05-14T02:54:34.485Z,85.62
2018-05-14T03:03:33.896Z,85.90
2018-05-14T03:04:25.963Z,85.81
2018-05-14T03:07:10.613Z,85.81
2018-05-14T03:07:57.622Z,86.10
2018-05-14T03:09:04.078Z,85.29
2018-05-14T03:12:48.783Z,85.38
2018-05-14T03:13:48.788Z,85.29
2018-05-14T03:16:18.205Z,85.86
2018-05-14T03:19:10.702Z,86.24
2018-05-14T03:19:56.465Z,85.77
2018-05-14T03:23:52.808Z,85.67
2018-05-14T03:25:00.501Z,85.48
2018-05-14T03:26:00.481Z,85.96
2018-05-14T03:26:53.106Z,85.96
2018-05-14T03:27:53.215Z,85.67
2018-05-14T03:29:14.285Z,86.05
2018-05-14T03:31:24.834Z,85.58
2018-05-14T03:32:54.467Z,85.38
2018-05-14T03:33:53.039Z,86.24
2018-05-14T03:37:28.716Z,86.05
2018-05-14T03:38:35.719Z,85.67
2018-05-14T03:44:03.225Z,85.77
2018-05-14T03:45:26.232Z,86.15
2018-05-14T03:49:07.755Z,85.29
2018-05-14T03:50:09.251Z,85.86
2018-05-14T03:51:05.849Z,86.15
2018-05-14T03:52:29.807Z,86.15
2018-05-14T03:53:12.795Z,85.77
2018-05-14T03:55:38.317Z,86.05
2018-05-14T03:58:32.810Z,85.96
2018-05-14T03:59:09.825Z,85.38
2018-05-14T04:03:34.805Z,85.58
2018-05-14T04:04:26.873Z,85.38
2018-05-14T04:08:15.547Z,85.48
2018-05-14T04:10:53.831Z,85.48
2018-05-14T04:11:47.185Z,85.48
2018-05-14T04:12:53.857Z,84.91
2018-05-14T04:15:19.577Z,85.29
2018-05-14T04:17:53.202Z,85.52
2018-05-14T04:18:56.643Z,85.10
2018-05-14T04:19:59.640Z,85.58
2018-05-14T04:20:53.710Z,85.24
2018-05-14T04:22:09.168Z,85.58
2018-05-14T04:24:37.171Z,85.33
2018-05-14T04:26:24.658Z,85.62
2018-05-14T04:28:54.912Z,85.42
2018-05-14T04:36:22.373Z,85.24
2018-05-14T04:37:04.372Z,85.42
2018-05-14T04:39:32.261Z,86.00
2018-05-14T04:42:10.504Z,85.71
2018-05-14T04:43:03.853Z,85.81
2018-05-14T04:44:03.949Z,85.62
2018-05-14T04:45:07.012Z,85.42
2018-05-14T04:46:07.012Z,85.71
2018-05-14T04:48:35.745Z,85.42
2018-05-14T04:51:10.488Z,86.10
2018-05-14T04:52:08.496Z,85.33
2018-05-14T04:53:08.491Z,85.33
2018-05-14T04:55:40.237Z,85.14
2018-05-14T04:56:42.184Z,85.52
2018-05-14T04:57:45.677Z,85.62
2018-05-14T05:00:32.954Z,85.14
2018-05-14T05:01:38.961Z,85.52
2018-05-14T05:02:11.441Z,85.28
2018-05-14T05:03:11.560Z,85.66
2018-05-14T05:04:39.460Z,85.24
2018-05-14T05:07:04.237Z,85.62
2018-05-14T05:07:43.346Z,85.38
2018-05-14T05:11:52.013Z,85.47
2018-05-14T05:14:39.224Z,85.28
2018-05-14T05:16:50.476Z,85.09
2018-05-14T05:21:59.563Z,85.18
2018-05-14T05:24:45.312Z,84.94
2018-05-14T05:27:02.587Z,85.32
2018-05-14T05:29:30.096Z,84.36
2018-05-14T05:30:30.104Z,84.08
2018-05-14T05:31:27.583Z,83.89
2018-05-14T05:34:20.147Z,84.17
2018-05-14T05:34:59.247Z,83.64
2018-05-14T05:36:20.348Z,83.93
2018-05-14T05:38:30.879Z,82.78
2018-05-14T05:42:40.625Z,81.86
2018-05-14T05:43:33.983Z,81.86
2018-05-14T05:46:12.234Z,80.33
2018-05-14T05:48:57.977Z,80.62
2018-05-14T05:49:39.726Z,81.00
2018-05-14T05:50:51.733Z,80.52
2018-05-14T05:51:38.233Z,80.52
2018-05-14T05:52:40.247Z,79.57
2018-05-14T05:53:37.595Z,76.82
2018-05-14T05:54:38.246Z,78.74
2018-05-14T05:57:30.244Z,79.22
2018-05-14T05:58:09.346Z,78.74
2018-05-14T06:02:41.101Z,74.52
2018-05-14T06:03:42.099Z,72.55
2018-05-14T06:06:19.428Z,73.32
2018-05-14T06:07:40.425Z,71.50
2018-05-14T06:08:33.900Z,72.97
2018-05-14T06:10:59.158Z,70.48
2018-05-14T06:13:15.982Z,68.79
2018-05-14T06:14:16.081Z,67.44
2018-05-14T06:16:47.610Z,66.77
2018-05-14T06:17:47.709Z,66.00
2018-05-14T06:19:02.343Z,65.08
2018-05-14T06:19:48.844Z,65.08
2018-05-14T06:21:02.852Z,65.84
2018-05-14T06:21:48.194Z,67.47
2018-05-14T06:22:48.844Z,66.52
2018-05-14T06:24:12.296Z,64.43
2018-05-14T06:24:49.374Z,64.63
2018-05-14T06:26:03.344Z,63.19
2018-05-14T06:26:48.696Z,61.65
2018-05-14T06:27:49.393Z,61.87
2018-05-14T06:28:49.851Z,61.97
2018-05-14T06:29:49.845Z,62.26
2018-05-14T06:30:49.843Z,63.12
2018-05-14T06:32:03.851Z,62.16
2018-05-14T06:33:12.814Z,62.26
2018-05-14T06:33:49.536Z,61.01
2018-05-14T06:34:51.810Z,60.91
2018-05-14T06:35:50.449Z,60.43
2018-05-14T06:36:49.945Z,60.63
2018-05-14T06:37:52.324Z,60.53
2018-05-14T06:40:22.320Z,59.09
2018-05-14T06:42:54.319Z,60.66
2018-05-14T06:43:53.668Z,61.61
2018-05-14T06:44:56.333Z,59.99
2018-05-14T06:45:54.824Z,60.75
2018-05-14T06:48:26.208Z,60.08
2018-05-14T06:49:26.214Z,58.83
2018-05-14T06:50:26.215Z,58.45
2018-05-14T06:51:30.670Z,58.83
2018-05-14T06:54:04.055Z,59.41
2018-05-14T06:54:58.061Z,59.34
2018-05-14T06:55:58.062Z,59.12
2018-05-14T06:56:58.566Z,58.54
2018-05-14T06:57:58.495Z,59.02
2018-05-14T06:58:58.562Z,58.92
2018-05-14T06:59:58.559Z,57.87
2018-05-14T07:04:22.776Z,60.88
2018-05-14T07:05:01.136Z,59.15
2018-05-14T07:06:22.780Z,59.34
2018-05-14T07:07:08.280Z,59.34
2018-05-14T07:08:04.279Z,58.76
2018-05-14T07:11:00.778Z,59.02
2018-05-14T07:11:39.814Z,60.08
2018-05-14T07:12:54.791Z,60.46
2018-05-14T07:13:40.292Z,60.08
2018-05-14T07:14:55.335Z,60.27
2018-05-14T07:15:41.494Z,60.53
2018-05-14T07:18:26.795Z,61.14
2018-05-14T07:19:26.798Z,60.75
2018-05-14T07:20:26.800Z,60.66
2018-05-14T07:21:27.309Z,60.56
2018-05-14T07:22:28.755Z,60.78
2018-05-14T07:23:27.300Z,59.05
2018-05-14T07:24:06.299Z,59.44
2018-05-14T07:25:05.920Z,58.28
2018-05-14T07:26:20.801Z,58.31
2018-05-14T07:27:06.805Z,58.37
2018-05-14T07:28:27.812Z,59.94
2018-05-14T07:29:07.300Z,58.22
2018-05-14T07:30:07.318Z,58.31
2018-05-14T07:31:21.301Z,58.70
2018-05-14T07:32:13.299Z,57.18
2018-05-14T07:34:39.068Z,56.90
2018-05-14T07:35:39.069Z,56.22
2018-05-14T07:36:39.069Z,55.45
2018-05-14T07:37:40.499Z,56.22
2018-05-14T07:38:53.567Z,54.90
2018-05-14T07:39:39.567Z,54.32
2018-05-14T07:40:39.571Z,55.19
2018-05-14T07:43:11.339Z,53.29
2018-05-14T07:44:32.346Z,53.96
2018-05-14T07:45:11.342Z,54.18
2018-05-14T07:47:44.549Z,53.41
2018-05-14T07:48:43.115Z,53.31
2018-05-14T07:49:43.114Z,53.73
2018-05-14T07:50:57.626Z,53.05
2018-05-14T07:52:04.620Z,53.83
2018-05-14T07:52:43.642Z,53.34
2018-05-14T07:55:15.782Z,51.99
2018-05-14T07:56:15.790Z,51.70
2018-05-14T07:57:15.793Z,52.19
2018-05-14T07:58:43.290Z,51.70
2018-05-14T07:59:16.297Z,51.15
2018-05-14T08:00:16.381Z,52.59
2018-05-14T08:01:15.768Z,52.11
2018-05-14T08:02:18.800Z,50.67
2018-05-14T08:03:37.015Z,50.09
2018-05-14T08:04:43.794Z,51.37
2018-05-14T08:05:16.274Z,50.31
2018-05-14T08:07:48.621Z,50.89
2018-05-14T08:08:48.539Z,49.63
2018-05-14T08:09:48.539Z,50.21
2018-05-14T08:11:03.034Z,49.15
2018-05-14T08:12:09.247Z,48.93
2018-05-14T08:12:55.041Z,49.02
2018-05-14T08:13:49.242Z,49.24
2018-05-14T08:14:52.509Z,49.51
2018-05-14T08:15:49.546Z,48.93
2018-05-14T08:17:09.901Z,49.41
2018-05-14T08:17:49.535Z,51.95
2018-05-14T08:20:22.782Z,49.24
2018-05-14T08:21:43.805Z,48.47
2018-05-14T08:22:21.807Z,48.37
2018-05-14T08:23:21.036Z,49.17
2018-05-14T08:24:21.145Z,47.43
2018-05-14T08:25:21.807Z,48.95
2018-05-14T08:26:21.531Z,48.95
2018-05-14T08:27:43.305Z,49.24
2018-05-14T08:28:22.767Z,47.53
2018-05-14T08:29:22.315Z,49.17
2018-05-14T08:30:43.811Z,49.17
2018-05-14T08:31:51.810Z,47.63
2018-05-14T08:32:22.162Z,47.60
2018-05-14T08:36:25.703Z,47.91
2018-05-14T08:37:26.399Z,49.07
2018-05-14T08:38:26.432Z,48.01
2018-05-14T08:39:28.900Z,47.53
2018-05-14T08:40:26.900Z,46.95
2018-05-14T08:41:32.900Z,47.53
2018-05-14T08:42:26.902Z,47.43
2018-05-14T08:43:41.736Z,47.14
2018-05-14T08:44:27.758Z,47.26
2018-05-14T08:46:58.996Z,46.58
2018-05-14T08:48:19.917Z,47.36
2018-05-14T08:48:58.920Z,47.07
2018-05-14T08:51:30.686Z,47.07
2018-05-14T08:52:30.061Z,46.88
2018-05-14T08:53:30.696Z,46.20
2018-05-14T08:57:54.964Z,45.25
2018-05-14T08:58:33.980Z,45.74
2018-05-14T08:59:36.407Z,44.96
2018-05-14T09:00:33.570Z,45.83
2018-05-14T09:01:33.672Z,46.80
2018-05-14T09:02:40.483Z,45.35
2018-05-14T09:03:55.485Z,46.32
2018-05-14T09:04:35.908Z,46.63
2018-05-14T09:07:27.231Z,44.02
2018-05-14T09:08:06.231Z,43.63
2018-05-14T09:09:27.733Z,45.18
2018-05-14T09:10:08.733Z,46.05
2018-05-14T09:11:12.734Z,44.13
2018-05-14T09:12:07.665Z,44.23
2018-05-14T09:15:58.813Z,43.95
2018-05-14T09:16:38.488Z,44.13
2018-05-14T09:17:39.418Z,44.91
2018-05-14T09:18:59.992Z,45.10
2018-05-14T09:19:39.196Z,45.32
2018-05-14T09:20:40.421Z,44.54
2018-05-14T09:21:59.427Z,42.90
2018-05-14T09:22:45.489Z,43.29
2018-05-14T09:25:10.756Z,41.86
2018-05-14T09:26:10.122Z,42.71
2018-05-14T09:27:10.763Z,41.83
2018-05-14T09:29:44.524Z,41.45
2018-05-14T09:31:02.863Z,41.45
2018-05-14T09:31:42.003Z,43.09
2018-05-14T09:32:57.034Z,42.80
2018-05-14T09:34:04.037Z,41.83
2018-05-14T09:34:45.032Z,41.16
2018-05-14T09:36:03.635Z,42.32
2018-05-14T09:38:35.797Z,40.96
2018-05-14T09:39:21.822Z,41.64
2018-05-14T09:40:35.795Z,41.95
2018-05-14T09:41:14.401Z,42.44
2018-05-14T09:42:36.310Z,40.50
2018-05-14T09:43:23.229Z,41.39
2018-05-14T09:44:21.300Z,40.91
2018-05-14T09:46:47.050Z,40.33
2018-05-14T09:47:47.060Z,40.33
2018-05-14T09:50:56.836Z,41.88
2018-05-14T09:51:50.841Z,39.95
2018-05-14T09:53:12.337Z,38.96
2018-05-14T09:54:12.338Z,38.96
2018-05-14T09:55:12.335Z,40.13
2018-05-14T09:55:51.343Z,40.03
2018-05-14T09:57:12.008Z,38.95
2018-05-14T09:59:23.521Z,39.92
2018-05-14T10:00:23.532Z,40.33
2018-05-14T10:01:25.529Z,39.94
2018-05-14T10:02:44.126Z,39.16
2018-05-14T10:03:24.029Z,39.65
2018-05-14T10:04:44.390Z,38.78
2018-05-14T10:07:29.716Z,38.58
2018-05-14T10:08:32.144Z,38.48
2018-05-14T10:09:44.211Z,37.81
2018-05-14T10:10:30.210Z,38.00
2018-05-14T10:11:30.213Z,38.09
2018-05-14T10:12:31.645Z,37.90
2018-05-14T10:13:51.716Z,38.48
2018-05-14T10:14:32.152Z,37.63
2018-05-14T10:15:32.712Z,38.02
2018-05-14T10:18:01.798Z,37.53
2018-05-14T10:19:02.488Z,37.15
2018-05-14T10:20:23.493Z,37.82
2018-05-14T10:21:02.992Z,38.04
2018-05-14T10:22:23.214Z,37.34
2018-05-14T10:23:23.297Z,37.35
2018-05-14T10:25:55.576Z,37.16
2018-05-14T10:27:01.583Z,37.65
2018-05-14T10:27:34.583Z,36.00
2018-05-14T10:28:41.091Z,36.00
2018-05-14T10:29:35.089Z,36.58
2018-05-14T10:32:06.167Z,36.00
2018-05-14T10:33:20.615Z,36.19
2018-05-14T10:34:28.124Z,36.48
2018-05-14T10:35:07.127Z,35.03
2018-05-14T10:36:07.114Z,36.10
2018-05-14T10:37:28.115Z,37.16
2018-05-14T10:38:28.615Z,37.07
2018-05-14T10:39:08.573Z,36.58
2018-05-14T10:40:28.616Z,36.38
2018-05-14T10:41:07.099Z,37.16
2018-05-14T10:42:29.165Z,37.45
2018-05-14T10:43:10.122Z,36.97
2018-05-14T10:44:08.113Z,36.38
2018-05-14T10:45:07.621Z,36.56
2018-05-14T10:46:08.616Z,37.43
2018-05-14T10:47:08.618Z,37.73
2018-05-14T10:48:08.616Z,38.32
2018-05-14T10:49:08.621Z,38.32
2018-05-14T10:51:40.392Z,38.52
2018-05-14T10:52:40.398Z,38.15
2018-05-14T10:53:54.906Z,38.73
2018-05-14T10:55:01.913Z,39.03
2018-05-14T10:55:40.898Z,38.25
2018-05-14T10:57:01.906Z,38.54
2018-05-14T10:57:40.513Z,39.03
2018-05-14T10:58:43.439Z,38.44
2018-05-14T10:59:41.396Z,38.56
2018-05-14T11:00:47.830Z,38.95
2018-05-14T11:03:12.471Z,37.20
2018-05-14T11:04:13.181Z,36.02
2018-05-14T11:05:13.180Z,36.02
2018-05-14T11:06:12.782Z,37.01
2018-05-14T11:09:28.616Z,36.52
2018-05-14T11:11:22.096Z,36.52
2018-05-14T11:12:21.453Z,36.52
2018-05-14T11:13:22.081Z,37.59
2018-05-14T11:14:22.580Z,35.55
2018-05-14T11:15:22.579Z,35.94
2018-05-14T11:16:22.580Z,35.45
2018-05-14T11:17:22.586Z,36.24
2018-05-14T11:18:29.093Z,36.83
2018-05-14T11:19:23.080Z,36.73
2018-05-14T11:20:23.087Z,35.86
2018-05-14T11:21:23.083Z,35.57
2018-05-14T11:22:43.730Z,35.08
2018-05-14T11:23:23.585Z,34.59
2018-05-14T11:24:23.587Z,34.40
2018-05-14T11:25:23.585Z,34.88
2018-05-14T11:26:24.089Z,34.50
2018-05-14T11:27:24.088Z,35.86
2018-05-14T11:28:24.081Z,34.59
2018-05-14T11:29:24.111Z,34.09
2018-05-14T11:31:55.672Z,34.19
2018-05-14T11:32:58.851Z,34.28
2018-05-14T11:33:56.865Z,34.50
2018-05-14T11:34:58.877Z,34.50
2018-05-14T11:36:17.870Z,35.66
2018-05-14T11:38:29.047Z,35.66
2018-05-14T11:39:30.045Z,34.79
2018-05-14T11:40:28.543Z,34.40
2018-05-14T11:41:31.536Z,33.93
2018-05-14T11:42:28.798Z,34.70
2018-05-14T11:43:29.534Z,33.54
2018-05-14T11:44:29.009Z,33.17
2018-05-14T11:45:44.048Z,32.49
2018-05-14T11:46:29.284Z,32.20
2018-05-14T11:47:30.040Z,32.20
2018-05-14T11:48:30.037Z,31.04
2018-05-14T11:49:36.611Z,31.34
2018-05-14T11:50:57.531Z,31.54
2018-05-14T11:51:29.896Z,31.06
2018-05-14T11:52:29.996Z,30.87
2018-05-14T11:53:51.104Z,31.46
2018-05-14T11:54:31.041Z,30.57
2018-05-14T11:55:45.039Z,30.68
2018-05-14T11:56:37.073Z,30.88
2018-05-14T11:57:33.972Z,31.66
2018-05-14T11:58:51.622Z,30.70
2018-05-14T11:59:31.567Z,29.83
2018-05-14T12:00:34.536Z,28.57
2018-05-14T12:01:37.542Z,27.59
2018-05-14T12:02:45.598Z,28.28
2018-05-14T12:03:32.032Z,28.08
2018-05-14T12:06:03.361Z,27.20
2018-05-14T12:07:25.257Z,26.31
2018-05-14T12:08:04.252Z,26.80
2018-05-14T12:10:35.888Z,28.54
2018-05-14T12:11:41.967Z,29.71
2018-05-14T12:12:35.898Z,29.04
2018-05-14T12:15:07.672Z,28.39
2018-05-14T12:16:07.722Z,28.59
2018-05-14T12:17:07.680Z,27.72
2018-05-14T12:18:28.274Z,26.95
2018-05-14T12:19:31.182Z,26.95
2018-05-14T12:20:08.185Z,26.57
2018-05-14T12:21:08.187Z,26.28
2018-05-14T12:22:14.679Z,26.68
2018-05-14T12:23:08.701Z,24.63
2018-05-14T12:24:30.682Z,25.71
2018-05-14T12:25:08.680Z,24.53
2018-05-14T12:26:23.181Z,24.63
2018-05-14T12:27:08.414Z,24.82
2018-05-14T12:29:39.963Z,25.81
2018-05-14T12:31:03.180Z,25.70
2018-05-14T12:31:40.696Z,25.11
2018-05-14T12:32:40.308Z,24.52
2018-05-14T12:33:40.416Z,25.10
2018-05-14T12:36:26.693Z,24.81
2018-05-14T12:37:12.714Z,25.12
2018-05-14T12:38:12.700Z,23.76
2018-05-14T12:39:12.314Z,23.27
2018-05-14T12:40:13.203Z,23.47
2018-05-14T12:41:15.200Z,23.68
2018-05-14T12:42:40.710Z,23.20
2018-05-14T12:43:19.700Z,23.10
2018-05-14T12:44:34.702Z,21.55
2018-05-14T12:45:19.702Z,21.15
2018-05-14T12:46:15.666Z,21.45
2018-05-14T12:47:35.202Z,21.95
2018-05-14T12:48:20.199Z,21.55
2018-05-14T12:49:34.547Z,22.03
2018-05-14T12:50:14.203Z,21.55
2018-05-14T12:51:13.815Z,21.33
2018-05-14T12:52:29.331Z,22.41
2018-05-14T12:53:16.701Z,21.52
2018-05-14T12:54:28.703Z,22.21
2018-05-14T12:55:36.223Z,22.70
2018-05-14T12:56:36.201Z,22.02
2018-05-14T12:57:36.200Z,20.93
2018-05-14T12:58:14.708Z,22.02
2018-05-14T12:59:29.701Z,21.15
2018-05-14T13:00:35.920Z,21.36
2018-05-14T13:01:15.038Z,20.67
2018-05-14T13:02:15.723Z,20.38
2018-05-14T13:03:37.339Z,21.06
2018-05-14T13:04:18.161Z,20.37
2018-05-14T13:05:16.205Z,22.02
2018-05-14T13:06:22.201Z,21.34
2018-05-14T13:07:17.633Z,21.52
2018-05-14T13:09:54.136Z,20.74
2018-05-14T13:10:50.144Z,19.98
2018-05-14T13:12:09.144Z,20.07
2018-05-14T13:12:48.645Z,20.48
2018-05-14T13:14:08.885Z,20.07
2018-05-14T13:14:48.642Z,20.37
2018-05-14T13:17:20.303Z,20.96
2018-05-14T13:18:20.308Z,20.75
2018-05-14T13:19:20.810Z,20.27
2018-05-14T13:20:20.809Z,19.79
2018-05-14T13:21:22.819Z,19.69
2018-05-14T13:22:41.849Z,19.68
2018-05-14T13:23:20.816Z,18.99
2018-05-14T13:24:23.309Z,19.67
2018-05-14T13:26:58.728Z,20.07
2018-05-14T13:27:54.160Z,20.07
2018-05-14T13:28:52.727Z,20.37
2018-05-14T13:29:55.234Z,19.89
2018-05-14T13:30:52.474Z,19.41
2018-05-14T13:32:20.660Z,18.93
2018-05-14T13:32:54.700Z,19.80
2018-05-14T13:33:57.160Z,18.13
2018-05-14T13:34:53.733Z,17.82
2018-05-14T13:37:25.324Z,18.71
2018-05-14T13:38:24.678Z,18.70
2018-05-14T13:39:25.312Z,18.80
2018-05-14T13:40:25.819Z,18.60
2018-05-14T13:42:59.264Z,18.52
2018-05-14T13:43:59.124Z,18.72
2018-05-14T13:45:11.267Z,18.24
2018-05-14T13:46:20.201Z,18.63
2018-05-14T13:46:56.973Z,18.34
2018-05-14T13:47:58.775Z,18.93
2018-05-14T13:48:57.384Z,17.85
2018-05-14T13:50:04.268Z,18.64
2018-05-14T13:50:59.284Z,18.16
2018-05-14T13:52:20.265Z,17.36
2018-05-14T13:53:19.157Z,17.86
2018-05-14T13:54:19.776Z,17.38
2018-05-14T13:56:32.130Z,17.88
2018-05-14T13:57:50.656Z,17.77
2018-05-14T13:58:32.694Z,18.06
2018-05-14T13:59:30.781Z,18.16
2018-05-14T14:00:36.691Z,17.96
2018-05-14T14:01:30.696Z,17.68
2018-05-14T14:02:32.649Z,18.25
2018-05-14T14:03:37.192Z,18.73
2018-05-14T14:04:31.198Z,18.36
2018-05-14T14:05:45.189Z,18.46
2018-05-14T14:06:54.691Z,18.63
2018-05-14T14:07:31.692Z,18.44
2018-05-14T14:08:45.697Z,19.20
2018-05-14T14:09:31.698Z,18.72
2018-05-14T14:10:53.192Z,18.82
2018-05-14T14:11:32.266Z,18.73
2018-05-14T14:12:34.207Z,18.52
2018-05-14T14:13:34.696Z,18.62
2018-05-14T14:14:33.177Z,19.02
2018-05-14T14:15:53.692Z,18.83
2018-05-14T14:16:53.691Z,18.63
2018-05-14T14:17:32.691Z,18.83
2018-05-14T14:20:03.797Z,19.62
2018-05-14T14:21:10.516Z,19.62
2018-05-14T14:22:04.515Z,19.51
2018-05-14T14:24:36.307Z,20.65
2018-05-14T14:25:36.327Z,20.95
2018-05-14T14:26:36.320Z,21.15
2018-05-14T14:27:36.812Z,20.96
2018-05-14T14:28:36.815Z,21.42
2018-05-14T14:29:57.248Z,22.86
2018-05-14T14:30:57.818Z,24.08
2018-05-14T14:31:36.431Z,25.63
2018-05-14T14:32:51.309Z,25.56
2018-05-14T14:34:00.312Z,23.82
2018-05-14T14:34:37.316Z,23.05
2018-05-14T14:35:43.899Z,22.76
2018-05-14T14:36:37.059Z,22.87
2018-05-14T14:37:39.813Z,21.92
2018-05-14T14:38:37.815Z,21.62
2018-05-14T14:39:44.313Z,21.34
2018-05-14T14:40:37.575Z,20.64
2018-05-14T14:43:23.860Z,19.59
2018-05-14T14:44:09.231Z,20.85
2018-05-14T14:45:10.827Z,20.07
2018-05-14T14:46:09.474Z,20.56
2018-05-14T14:48:41.777Z,20.63
2018-05-14T14:49:41.764Z,20.24
2018-05-14T14:50:43.695Z,21.31
2018-05-14T14:51:56.277Z,21.41
2018-05-14T14:52:57.695Z,21.89
2018-05-14T14:53:42.263Z,21.22
2018-05-14T14:54:44.269Z,22.30
2018-05-14T14:56:02.869Z,22.58
2018-05-14T14:59:51.633Z,23.34
2018-05-14T15:00:47.636Z,22.76
2018-05-14T15:01:46.140Z,24.49
2018-05-14T15:02:45.397Z,25.24
2018-05-14T15:05:17.718Z,24.29
2018-05-14T15:07:49.252Z,23.62
2018-05-14T15:09:09.600Z,22.45
2018-05-14T15:10:11.281Z,22.36
2018-05-14T15:11:10.260Z,22.17
2018-05-14T15:13:21.052Z,22.27
2018-05-14T15:14:21.048Z,21.96
2018-05-14T15:15:20.537Z,21.68
2018-05-14T15:16:21.480Z,23.05
2018-05-14T15:17:21.546Z,22.64
2018-05-14T15:18:21.548Z,22.64
2018-05-14T15:19:21.064Z,23.13
2018-05-14T15:20:22.047Z,22.64
2018-05-14T15:21:24.045Z,22.64
2018-05-14T15:22:22.048Z,22.94
2018-05-14T15:23:21.538Z,22.95
2018-05-14T15:24:24.555Z,22.66
2018-05-14T15:27:14.984Z,22.85
2018-05-14T15:27:59.424Z,22.17
2018-05-14T15:28:53.992Z,21.98
2018-05-14T15:30:14.591Z,22.44
2018-05-14T15:32:25.895Z,22.64
2018-05-14T15:33:25.962Z,22.83
2018-05-14T15:34:25.902Z,22.63
2018-05-14T15:35:25.899Z,22.83
2018-05-14T15:36:46.525Z,23.02
2018-05-14T15:37:27.904Z,22.81
2018-05-14T15:38:47.458Z,22.13
2018-05-14T15:39:26.404Z,21.94
2018-05-14T15:40:26.405Z,22.02
2018-05-14T15:41:26.993Z,22.31
2018-05-14T15:42:40.902Z,21.81
2018-05-14T15:43:26.343Z,22.10
2018-05-14T15:44:47.906Z,22.10
2018-05-14T15:45:27.402Z,21.33
2018-05-14T15:46:27.574Z,21.42
2018-05-14T15:47:27.402Z,21.42
2018-05-14T15:48:27.403Z,21.42
2018-05-14T15:49:53.339Z,21.91
2018-05-14T15:50:27.914Z,21.80
2018-05-14T15:51:27.902Z,22.19
2018-05-14T15:52:27.912Z,22.19
2018-05-14T15:53:28.409Z,22.38
2018-05-14T15:54:28.402Z,22.97
2018-05-14T15:55:49.407Z,22.48
2018-05-14T15:56:28.450Z,23.17
2018-05-14T15:57:55.906Z,22.49
2018-05-14T16:00:06.336Z,22.77
2018-05-14T16:01:00.345Z,22.77
2018-05-14T16:02:21.857Z,22.77
2018-05-14T16:03:00.098Z,23.63
2018-05-14T16:04:00.851Z,24.13
2018-05-14T16:05:21.327Z,23.45
2018-05-14T16:06:01.351Z,23.55
2018-05-14T16:07:21.588Z,23.65
2018-05-14T16:08:23.348Z,24.22
2018-05-14T16:09:22.350Z,24.61
2018-05-14T16:10:22.851Z,24.89
2018-05-14T16:11:01.850Z,25.08
2018-05-14T16:12:01.855Z,24.88
2018-05-14T16:13:01.851Z,24.78
2018-05-14T16:14:03.288Z,24.87
2018-05-14T16:15:02.370Z,25.35
2018-05-14T16:16:02.359Z,24.95
2018-05-14T16:17:02.351Z,24.74
2018-05-14T16:18:02.379Z,25.42
2018-05-14T16:19:02.851Z,25.32
2018-05-14T16:20:27.302Z,25.51
2018-05-14T16:21:02.884Z,25.60
2018-05-14T16:22:04.287Z,25.12
2018-05-14T16:23:24.363Z,24.92
2018-05-14T16:24:03.351Z,25.51
2018-05-14T16:26:36.098Z,24.91
2018-05-14T16:27:56.980Z,24.72
2018-05-14T16:28:36.046Z,25.40
2018-05-14T16:29:37.518Z,25.68
2018-05-14T16:30:36.560Z,25.59
2018-05-14T16:31:57.554Z,26.37
2018-05-14T16:32:36.552Z,26.37
2018-05-14T16:33:36.549Z,26.17
2018-05-14T16:34:36.548Z,26.75
2018-05-14T16:35:37.049Z,26.75
2018-05-14T16:36:37.054Z,26.37
2018-05-14T16:37:37.052Z,26.35
2018-05-14T16:38:37.049Z,26.17
2018-05-14T16:39:37.549Z,26.93
2018-05-14T16:40:37.548Z,26.93
2018-05-14T16:42:01.559Z,27.51
2018-05-14T16:42:37.549Z,28.38
2018-05-14T16:43:38.486Z,28.56
2018-05-14T16:44:40.050Z,28.28
2018-05-14T16:45:38.050Z,28.18
2018-05-14T16:46:37.530Z,28.47
2018-05-14T16:47:40.550Z,28.39
2018-05-14T16:48:37.786Z,28.29
2018-05-14T16:49:38.550Z,28.28
2018-05-14T16:50:38.034Z,28.38
2018-05-14T16:53:10.301Z,28.47
2018-05-14T16:54:16.311Z,29.05
2018-05-14T16:55:13.808Z,28.56
2018-05-14T16:56:10.809Z,29.24
2018-05-14T16:57:10.809Z,29.24
2018-05-14T16:58:33.240Z,29.73
2018-05-14T16:59:11.308Z,28.96
2018-05-14T17:00:10.540Z,29.83
2018-05-14T17:01:31.627Z,29.63
2018-05-14T17:02:10.735Z,29.73
2018-05-14T17:03:11.809Z,30.11
2018-05-14T17:04:32.810Z,30.11
2018-05-14T17:05:11.807Z,30.21
2018-05-14T17:06:11.810Z,30.31
2018-05-14T17:07:12.807Z,30.51
2018-05-14T17:08:12.312Z,30.21
2018-05-14T17:09:12.310Z,29.24
2018-05-14T17:10:12.306Z,29.63
2018-05-14T17:11:12.311Z,29.44
2018-05-14T17:14:05.062Z,28.17
2018-05-14T17:14:44.068Z,28.26
2018-05-14T17:15:44.070Z,27.78
2018-05-14T17:16:44.573Z,27.87
2018-05-14T17:17:43.807Z,28.07
2018-05-14T17:18:44.570Z,27.97
2018-05-14T17:19:44.055Z,28.26
2018-05-14T17:22:15.626Z,28.05
2018-05-14T17:23:16.338Z,28.44
2018-05-14T17:24:16.342Z,26.90
2018-05-14T17:25:16.841Z,26.99
2018-05-14T17:26:16.840Z,27.57
2018-05-14T17:27:19.775Z,27.78
2018-05-14T17:28:16.267Z,27.57
2018-05-14T17:29:18.790Z,26.61
2018-05-14T17:30:16.520Z,26.51
2018-05-14T17:31:17.341Z,26.61
2018-05-14T17:32:18.772Z,26.41
2018-05-14T17:33:17.347Z,26.70
2018-05-14T17:34:17.841Z,26.89
2018-05-14T17:35:17.841Z,26.89
2018-05-14T17:36:17.851Z,26.79
2018-05-14T17:37:18.339Z,27.37
2018-05-14T17:38:39.340Z,27.57
2018-05-14T17:39:18.348Z,26.89
2018-05-14T17:40:18.341Z,27.37
2018-05-14T17:41:17.822Z,26.61
2018-05-14T17:42:39.841Z,26.70
2018-05-14T17:43:18.839Z,26.89
2018-05-14T17:44:18.847Z,27.47
2018-05-14T17:45:18.841Z,27.37
2018-05-14T17:47:50.618Z,27.17
2018-05-14T17:48:50.615Z,26.10